sensor_id;sensor_type;location;lat;lon;timestamp;P1;durP1;ratioP1;P2;durP2;ratioP2
56653;SDS011;45096;52.302;4.634;2023-03-03T00:02:03;9.52;;;6.22;;
56653;SDS011;45096;52.302;4.634;2023-03-03T00:04:29;7.85;;;5.47;;
56653;SDS011;45096;52.302;4.634;2023-03-03T00:06:54;9.60;;;6.32;;
56653;SDS011;45096;52.302;4.634;2023-03-03T00:09:20;10.23;;;6.38;;
56653;SDS011;45096;52.302;4.634;2023-03-03T00:11:45;10.57;;;5.78;;
56653;SDS011;45096;52.302;4.634;2023-03-03T00:14:16;10.27;;;5.90;;
56653;SDS011;45096;52.302;4.634;2023-03-03T00:16:44;6.80;;;5.57;;
56653;SDS011;45096;52.302;4.634;2023-03-03T00:19:11;8.55;;;5.40;;
56653;SDS011;45096;52.302;4.634;2023-03-03T00:21:39;6.47;;;5.30;;
56653;SDS011;45096;52.302;4.634;2023-03-03T00:24:19;8.50;;;5.47;;
56653;SDS011;45096;52.302;4.634;2023-03-03T00:26:46;7.88;;;5.28;;
56653;SDS011;45096;52.302;4.634;2023-03-03T00:29:22;6.88;;;5.53;;
56653;SDS011;45096;52.302;4.634;2023-03-03T00:31:52;5.57;;;4.95;;
56653;SDS011;45096;52.302;4.634;2023-03-03T00:34:19;6.25;;;5.45;;
56653;SDS011;45096;52.302;4.634;2023-03-03T00:36:50;6.53;;;4.90;;
56653;SDS011;45096;52.302;4.634;2023-03-03T00:39:17;8.68;;;4.75;;
56653;SDS011;45096;52.302;4.634;2023-03-03T00:41:48;6.65;;;4.78;;
56653;SDS011;45096;52.302;4.634;2023-03-03T00:47:11;6.78;;;5.90;;
56653;SDS011;45096;52.302;4.634;2023-03-03T00:49:43;7.40;;;5.00;;
56653;SDS011;45096;52.302;4.634;2023-03-03T00:52:10;7.13;;;4.47;;
56653;SDS011;45096;52.302;4.634;2023-03-03T00:54:37;6.00;;;4.70;;
56653;SDS011;45096;52.302;4.634;2023-03-03T00:57:02;7.13;;;5.28;;
56653;SDS011;45096;52.302;4.634;2023-03-03T00:59:28;6.75;;;4.50;;
56653;SDS011;45096;52.302;4.634;2023-03-03T01:01:53;6.35;;;4.68;;
56653;SDS011;45096;52.302;4.634;2023-03-03T01:04:20;6.75;;;4.82;;
56653;SDS011;45096;52.302;4.634;2023-03-03T01:06:45;6.10;;;5.45;;
56653;SDS011;45096;52.302;4.634;2023-03-03T01:09:11;5.50;;;4.65;;
56653;SDS011;45096;52.302;4.634;2023-03-03T01:11:36;5.25;;;4.40;;
56653;SDS011;45096;52.302;4.634;2023-03-03T01:14:01;7.25;;;5.00;;
56653;SDS011;45096;52.302;4.634;2023-03-03T01:16:27;5.40;;;4.45;;
56653;SDS011;45096;52.302;4.634;2023-03-03T01:18:52;5.68;;;4.50;;
56653;SDS011;45096;52.302;4.634;2023-03-03T01:21:19;4.55;;;4.15;;
56653;SDS011;45096;52.302;4.634;2023-03-03T01:23:45;6.55;;;4.53;;
56653;SDS011;45096;52.302;4.634;2023-03-03T01:26:10;5.00;;;4.00;;
56653;SDS011;45096;52.302;4.634;2023-03-03T01:28:35;5.25;;;4.40;;
56653;SDS011;45096;52.302;4.634;2023-03-03T01:31:01;6.10;;;4.50;;
56653;SDS011;45096;52.302;4.634;2023-03-03T01:33:27;7.00;;;4.57;;
56653;SDS011;45096;52.302;4.634;2023-03-03T01:35:52;5.72;;;4.55;;
56653;SDS011;45096;52.302;4.634;2023-03-03T01:38:19;6.05;;;4.88;;
56653;SDS011;45096;52.302;4.634;2023-03-03T01:40:50;5.25;;;4.30;;
56653;SDS011;45096;52.302;4.634;2023-03-03T01:43:16;4.75;;;3.90;;
56653;SDS011;45096;52.302;4.634;2023-03-03T01:45:44;4.07;;;3.67;;
56653;SDS011;45096;52.302;4.634;2023-03-03T01:48:50;5.90;;;4.05;;
56653;SDS011;45096;52.302;4.634;2023-03-03T01:51:18;4.90;;;4.40;;
56653;SDS011;45096;52.302;4.634;2023-03-03T01:53:47;5.82;;;4.53;;
56653;SDS011;45096;52.302;4.634;2023-03-03T01:56:14;4.88;;;4.00;;
56653;SDS011;45096;52.302;4.634;2023-03-03T01:58:40;4.57;;;3.90;;
56653;SDS011;45096;52.302;4.634;2023-03-03T02:01:10;4.85;;;4.45;;
56653;SDS011;45096;52.302;4.634;2023-03-03T02:03:36;4.63;;;4.07;;
56653;SDS011;45096;52.302;4.634;2023-03-03T02:06:02;6.40;;;3.80;;
56653;SDS011;45096;52.302;4.634;2023-03-03T02:08:32;4.43;;;3.70;;
56653;SDS011;45096;52.302;4.634;2023-03-03T02:11:01;4.03;;;3.72;;
56653;SDS011;45096;52.302;4.634;2023-03-03T02:13:27;4.00;;;3.60;;
56653;SDS011;45096;52.302;4.634;2023-03-03T02:15:53;3.85;;;3.30;;
56653;SDS011;45096;52.302;4.634;2023-03-03T02:18:18;4.75;;;3.88;;
56653;SDS011;45096;52.302;4.634;2023-03-03T02:20:45;6.30;;;3.47;;
56653;SDS011;45096;52.302;4.634;2023-03-03T02:23:17;4.87;;;3.73;;
56653;SDS011;45096;52.302;4.634;2023-03-03T02:25:48;7.03;;;3.40;;
56653;SDS011;45096;52.302;4.634;2023-03-03T02:28:26;3.47;;;3.13;;
56653;SDS011;45096;52.302;4.634;2023-03-03T02:30:53;4.20;;;3.80;;
56653;SDS011;45096;52.302;4.634;2023-03-03T02:33:19;3.22;;;2.92;;
56653;SDS011;45096;52.302;4.634;2023-03-03T02:35:44;3.95;;;3.40;;
56653;SDS011;45096;52.302;4.634;2023-03-03T02:38:15;4.15;;;3.75;;
56653;SDS011;45096;52.302;4.634;2023-03-03T02:40:46;3.93;;;3.63;;
56653;SDS011;45096;52.302;4.634;2023-03-03T02:43:18;4.97;;;3.30;;
56653;SDS011;45096;52.302;4.634;2023-03-03T02:45:44;2.70;;;2.50;;
56653;SDS011;45096;52.302;4.634;2023-03-03T02:48:10;3.83;;;3.37;;
56653;SDS011;45096;52.302;4.634;2023-03-03T02:50:35;3.37;;;3.17;;
56653;SDS011;45096;52.302;4.634;2023-03-03T02:53:01;2.92;;;2.72;;
56653;SDS011;45096;52.302;4.634;2023-03-03T02:55:26;3.43;;;2.80;;
56653;SDS011;45096;52.302;4.634;2023-03-03T02:57:51;3.50;;;3.20;;
56653;SDS011;45096;52.302;4.634;2023-03-03T03:00:18;3.45;;;2.83;;
56653;SDS011;45096;52.302;4.634;2023-03-03T03:02:44;3.22;;;2.70;;
56653;SDS011;45096;52.302;4.634;2023-03-03T03:05:09;2.67;;;2.40;;
56653;SDS011;45096;52.302;4.634;2023-03-03T03:07:35;2.93;;;2.73;;
56653;SDS011;45096;52.302;4.634;2023-03-03T03:10:00;3.13;;;2.37;;
56653;SDS011;45096;52.302;4.634;2023-03-03T03:12:26;3.20;;;2.50;;
56653;SDS011;45096;52.302;4.634;2023-03-03T03:14:51;2.67;;;2.40;;
56653;SDS011;45096;52.302;4.634;2023-03-03T03:17:18;2.63;;;2.35;;
56653;SDS011;45096;52.302;4.634;2023-03-03T03:19:43;5.03;;;2.65;;
56653;SDS011;45096;52.302;4.634;2023-03-03T03:22:08;4.07;;;2.90;;
56653;SDS011;45096;52.302;4.634;2023-03-03T03:24:34;4.00;;;2.27;;
56653;SDS011;45096;52.302;4.634;2023-03-03T03:26:59;2.45;;;2.00;;
56653;SDS011;45096;52.302;4.634;2023-03-03T03:29:25;2.47;;;2.27;;
56653;SDS011;45096;52.302;4.634;2023-03-03T03:31:50;3.00;;;2.50;;
56653;SDS011;45096;52.302;4.634;2023-03-03T03:34:17;2.75;;;2.55;;
56653;SDS011;45096;52.302;4.634;2023-03-03T03:36:42;2.40;;;2.20;;
56653;SDS011;45096;52.302;4.634;2023-03-03T03:39:08;2.10;;;2.00;;
56653;SDS011;45096;52.302;4.634;2023-03-03T03:41:33;2.50;;;2.30;;
56653;SDS011;45096;52.302;4.634;2023-03-03T03:43:58;2.33;;;2.20;;
56653;SDS011;45096;52.302;4.634;2023-03-03T03:46:24;2.23;;;2.03;;
56653;SDS011;45096;52.302;4.634;2023-03-03T03:48:49;2.27;;;2.07;;
56653;SDS011;45096;52.302;4.634;2023-03-03T03:51:16;2.83;;;2.30;;
56653;SDS011;45096;52.302;4.634;2023-03-03T03:53:41;2.27;;;2.07;;
56653;SDS011;45096;52.302;4.634;2023-03-03T03:56:07;2.13;;;1.93;;
56653;SDS011;45096;52.302;4.634;2023-03-03T03:58:32;1.80;;;1.70;;
56653;SDS011;45096;52.302;4.634;2023-03-03T04:01:00;2.05;;;1.95;;
56653;SDS011;45096;52.302;4.634;2023-03-03T04:03:26;1.83;;;1.73;;
56653;SDS011;45096;52.302;4.634;2023-03-03T04:05:52;3.47;;;2.53;;
56653;SDS011;45096;52.302;4.634;2023-03-03T04:08:18;2.30;;;2.10;;
56653;SDS011;45096;52.302;4.634;2023-03-03T04:10:44;2.10;;;1.87;;
56653;SDS011;45096;52.302;4.634;2023-03-03T04:13:09;2.23;;;1.97;;
56653;SDS011;45096;52.302;4.634;2023-03-03T04:15:35;2.88;;;1.80;;
56653;SDS011;45096;52.302;4.634;2023-03-03T04:18:00;2.47;;;2.27;;
56653;SDS011;45096;52.302;4.634;2023-03-03T04:20:26;2.40;;;2.20;;
56653;SDS011;45096;52.302;4.634;2023-03-03T04:22:51;2.80;;;2.00;;
56653;SDS011;45096;52.302;4.634;2023-03-03T04:25:18;2.87;;;2.07;;
56653;SDS011;45096;52.302;4.634;2023-03-03T04:27:44;3.53;;;2.10;;
56653;SDS011;45096;52.302;4.634;2023-03-03T04:30:10;3.53;;;2.53;;
56653;SDS011;45096;52.302;4.634;2023-03-03T04:32:36;2.22;;;2.08;;
56653;SDS011;45096;52.302;4.634;2023-03-03T04:35:01;2.13;;;1.73;;
56653;SDS011;45096;52.302;4.634;2023-03-03T04:37:27;5.67;;;2.10;;
56653;SDS011;45096;52.302;4.634;2023-03-03T04:39:52;3.80;;;1.97;;
56653;SDS011;45096;52.302;4.634;2023-03-03T04:42:19;3.80;;;2.03;;
56653;SDS011;45096;52.302;4.634;2023-03-03T04:44:44;3.07;;;2.13;;
56653;SDS011;45096;52.302;4.634;2023-03-03T04:47:10;3.10;;;2.10;;
56653;SDS011;45096;52.302;4.634;2023-03-03T04:49:35;2.90;;;2.17;;
56653;SDS011;45096;52.302;4.634;2023-03-03T04:52:01;4.07;;;2.50;;
56653;SDS011;45096;52.302;4.634;2023-03-03T04:54:26;2.33;;;2.13;;
56653;SDS011;45096;52.302;4.634;2023-03-03T04:56:51;3.27;;;2.17;;
56653;SDS011;45096;52.302;4.634;2023-03-03T04:59:18;2.83;;;2.63;;
56653;SDS011;45096;52.302;4.634;2023-03-03T05:01:44;3.60;;;2.83;;
56653;SDS011;45096;52.302;4.634;2023-03-03T05:04:09;2.83;;;2.40;;
56653;SDS011;45096;52.302;4.634;2023-03-03T05:06:35;4.83;;;2.83;;
56653;SDS011;45096;52.302;4.634;2023-03-03T05:09:00;3.87;;;2.80;;
56653;SDS011;45096;52.302;4.634;2023-03-03T05:11:25;3.93;;;3.20;;
56653;SDS011;45096;52.302;4.634;2023-03-03T05:13:51;4.60;;;3.07;;
56653;SDS011;45096;52.302;4.634;2023-03-03T05:16:18;4.57;;;3.63;;
56653;SDS011;45096;52.302;4.634;2023-03-03T05:18:43;5.27;;;3.23;;
56653;SDS011;45096;52.302;4.634;2023-03-03T05:21:08;3.47;;;2.90;;
56653;SDS011;45096;52.302;4.634;2023-03-03T05:23:34;3.13;;;2.90;;
56653;SDS011;45096;52.302;4.634;2023-03-03T05:25:59;3.23;;;2.93;;
56653;SDS011;45096;52.302;4.634;2023-03-03T05:28:25;3.53;;;3.23;;
56653;SDS011;45096;52.302;4.634;2023-03-03T05:30:50;4.73;;;3.40;;
56653;SDS011;45096;52.302;4.634;2023-03-03T05:33:17;3.90;;;3.50;;
56653;SDS011;45096;52.302;4.634;2023-03-03T05:35:42;3.50;;;3.20;;
56653;SDS011;45096;52.302;4.634;2023-03-03T05:38:08;5.37;;;3.53;;
56653;SDS011;45096;52.302;4.634;2023-03-03T05:40:33;4.33;;;3.63;;
56653;SDS011;45096;52.302;4.634;2023-03-03T05:42:59;4.80;;;3.57;;
56653;SDS011;45096;52.302;4.634;2023-03-03T05:45:24;4.67;;;3.70;;
56653;SDS011;45096;52.302;4.634;2023-03-03T05:47:50;4.43;;;3.93;;
56653;SDS011;45096;52.302;4.634;2023-03-03T05:50:17;5.33;;;4.47;;
56653;SDS011;45096;52.302;4.634;2023-03-03T05:52:43;5.80;;;4.10;;
56653;SDS011;45096;52.302;4.634;2023-03-03T05:55:11;5.40;;;4.00;;
56653;SDS011;45096;52.302;4.634;2023-03-03T05:57:36;5.70;;;4.23;;
56653;SDS011;45096;52.302;4.634;2023-03-03T06:00:02;5.67;;;4.03;;
56653;SDS011;45096;52.302;4.634;2023-03-03T06:02:28;6.10;;;4.17;;
56653;SDS011;45096;52.302;4.634;2023-03-03T06:04:53;6.47;;;3.87;;
56653;SDS011;45096;52.302;4.634;2023-03-03T06:07:20;4.43;;;3.93;;
56653;SDS011;45096;52.302;4.634;2023-03-03T06:09:45;4.63;;;4.10;;
56653;SDS011;45096;52.302;4.634;2023-03-03T06:12:11;3.93;;;3.60;;
56653;SDS011;45096;52.302;4.634;2023-03-03T06:14:36;4.03;;;3.40;;
56653;SDS011;45096;52.302;4.634;2023-03-03T06:17:01;5.13;;;4.17;;
56653;SDS011;45096;52.302;4.634;2023-03-03T06:19:27;6.17;;;4.53;;
56653;SDS011;45096;52.302;4.634;2023-03-03T06:21:52;4.73;;;4.17;;
56653;SDS011;45096;52.302;4.634;2023-03-03T06:24:19;4.17;;;3.77;;
56653;SDS011;45096;52.302;4.634;2023-03-03T06:26:44;5.70;;;3.73;;
56653;SDS011;45096;52.302;4.634;2023-03-03T06:29:10;4.67;;;3.83;;
56653;SDS011;45096;52.302;4.634;2023-03-03T06:31:35;3.97;;;3.67;;
56653;SDS011;45096;52.302;4.634;2023-03-03T06:34:01;4.40;;;4.00;;
56653;SDS011;45096;52.302;4.634;2023-03-03T06:36:26;5.23;;;4.13;;
56653;SDS011;45096;52.302;4.634;2023-03-03T06:38:52;5.17;;;3.93;;
56653;SDS011;45096;52.302;4.634;2023-03-03T06:41:19;4.47;;;4.07;;
56653;SDS011;45096;52.302;4.634;2023-03-03T06:43:44;4.33;;;3.60;;
56653;SDS011;45096;52.302;4.634;2023-03-03T06:46:09;4.87;;;3.60;;
56653;SDS011;45096;52.302;4.634;2023-03-03T06:48:35;4.20;;;3.80;;
56653;SDS011;45096;52.302;4.634;2023-03-03T06:51:01;4.17;;;3.60;;
56653;SDS011;45096;52.302;4.634;2023-03-03T06:53:29;3.87;;;3.23;;
56653;SDS011;45096;52.302;4.634;2023-03-03T06:55:55;4.37;;;3.80;;
56653;SDS011;45096;52.302;4.634;2023-03-03T06:58:24;4.53;;;3.80;;
56653;SDS011;45096;52.302;4.634;2023-03-03T07:00:52;4.03;;;3.63;;
56653;SDS011;45096;52.302;4.634;2023-03-03T07:03:20;5.73;;;3.73;;
56653;SDS011;45096;52.302;4.634;2023-03-03T07:05:47;4.20;;;3.80;;
56653;SDS011;45096;52.302;4.634;2023-03-03T07:08:14;5.07;;;4.17;;
56653;SDS011;45096;52.302;4.634;2023-03-03T07:10:40;5.50;;;4.20;;
56653;SDS011;45096;52.302;4.634;2023-03-03T07:13:15;4.27;;;3.87;;
56653;SDS011;45096;52.302;4.634;2023-03-03T07:15:43;5.93;;;4.10;;
56653;SDS011;45096;52.302;4.634;2023-03-03T07:18:16;3.50;;;3.20;;
56653;SDS011;45096;52.302;4.634;2023-03-03T07:20:47;4.20;;;3.80;;
56653;SDS011;45096;52.302;4.634;2023-03-03T07:23:14;4.77;;;3.90;;
56653;SDS011;45096;52.302;4.634;2023-03-03T07:25:45;4.57;;;3.63;;
56653;SDS011;45096;52.302;4.634;2023-03-03T07:28:13;3.60;;;3.07;;
56653;SDS011;45096;52.302;4.634;2023-03-03T07:30:49;3.93;;;3.63;;
56653;SDS011;45096;52.302;4.634;2023-03-03T07:33:18;4.30;;;3.93;;
56653;SDS011;45096;52.302;4.634;2023-03-03T07:35:46;4.70;;;3.70;;
56653;SDS011;45096;52.302;4.634;2023-03-03T07:38:21;3.80;;;3.40;;
56653;SDS011;45096;52.302;4.634;2023-03-03T07:40:49;4.40;;;3.67;;
56653;SDS011;45096;52.302;4.634;2023-03-03T07:43:20;3.97;;;3.67;;
56653;SDS011;45096;52.302;4.634;2023-03-03T07:46:02;4.17;;;3.77;;
56653;SDS011;45096;52.302;4.634;2023-03-03T07:48:40;4.10;;;3.80;;
56653;SDS011;45096;52.302;4.634;2023-03-03T07:51:11;4.83;;;4.43;;
56653;SDS011;45096;52.302;4.634;2023-03-03T07:53:37;4.13;;;3.50;;
56653;SDS011;45096;52.302;4.634;2023-03-03T07:56:06;5.20;;;3.93;;
56653;SDS011;45096;52.302;4.634;2023-03-03T07:58:39;4.03;;;3.67;;
56653;SDS011;45096;52.302;4.634;2023-03-03T08:03:56;4.10;;;3.70;;
56653;SDS011;45096;52.302;4.634;2023-03-03T08:06:30;4.00;;;3.60;;
56653;SDS011;45096;52.302;4.634;2023-03-03T08:09:02;3.93;;;3.57;;
56653;SDS011;45096;52.302;4.634;2023-03-03T08:11:49;4.47;;;3.83;;
56653;SDS011;45096;52.302;4.634;2023-03-03T08:14:17;3.73;;;3.43;;
56653;SDS011;45096;52.302;4.634;2023-03-03T08:16:50;3.83;;;3.53;;
56653;SDS011;45096;52.302;4.634;2023-03-03T08:19:16;4.07;;;3.67;;
56653;SDS011;45096;52.302;4.634;2023-03-03T08:21:42;5.00;;;3.63;;
56653;SDS011;45096;52.302;4.634;2023-03-03T08:24:07;5.03;;;3.97;;
56653;SDS011;45096;52.302;4.634;2023-03-03T08:26:32;4.20;;;3.53;;
56653;SDS011;45096;52.302;4.634;2023-03-03T08:28:58;3.57;;;3.27;;
56653;SDS011;45096;52.302;4.634;2023-03-03T08:31:23;3.80;;;3.40;;
56653;SDS011;45096;52.302;4.634;2023-03-03T08:33:50;3.73;;;3.43;;
56653;SDS011;45096;52.302;4.634;2023-03-03T08:36:16;3.93;;;3.63;;
56653;SDS011;45096;52.302;4.634;2023-03-03T08:38:41;3.73;;;3.43;;
56653;SDS011;45096;52.302;4.634;2023-03-03T08:41:06;4.97;;;3.93;;
56653;SDS011;45096;52.302;4.634;2023-03-03T08:43:32;4.47;;;3.93;;
56653;SDS011;45096;52.302;4.634;2023-03-03T08:45:58;3.90;;;3.60;;
56653;SDS011;45096;52.302;4.634;2023-03-03T08:48:25;4.43;;;3.20;;
56653;SDS011;45096;52.302;4.634;2023-03-03T08:50:52;4.50;;;3.60;;
56653;SDS011;45096;52.302;4.634;2023-03-03T08:53:18;3.77;;;3.47;;
56653;SDS011;45096;52.302;4.634;2023-03-03T08:55:44;3.67;;;3.40;;
56653;SDS011;45096;52.302;4.634;2023-03-03T08:58:10;3.47;;;3.10;;
56653;SDS011;45096;52.302;4.634;2023-03-03T09:00:35;4.13;;;3.40;;
56653;SDS011;45096;52.302;4.634;2023-03-03T09:03:01;3.67;;;3.30;;
56653;SDS011;45096;52.302;4.634;2023-03-03T09:05:26;3.60;;;3.20;;
56653;SDS011;45096;52.302;4.634;2023-03-03T09:07:53;3.40;;;3.10;;
56653;SDS011;45096;52.302;4.634;2023-03-03T09:10:20;3.67;;;3.37;;
56653;SDS011;45096;52.302;4.634;2023-03-03T09:12:47;3.50;;;3.10;;
56653;SDS011;45096;52.302;4.634;2023-03-03T09:15:18;3.33;;;3.03;;
56653;SDS011;45096;52.302;4.634;2023-03-03T09:17:45;3.00;;;2.80;;
56653;SDS011;45096;52.302;4.634;2023-03-03T09:20:22;3.87;;;3.47;;
56653;SDS011;45096;52.302;4.634;2023-03-03T09:22:49;3.60;;;3.27;;
56653;SDS011;45096;52.302;4.634;2023-03-03T09:25:20;3.43;;;3.13;;
56653;SDS011;45096;52.302;4.634;2023-03-03T09:27:47;3.83;;;3.53;;
56653;SDS011;45096;52.302;4.634;2023-03-03T09:30:20;5.70;;;3.00;;
56653;SDS011;45096;52.302;4.634;2023-03-03T09:32:53;6.13;;;3.13;;
56653;SDS011;45096;52.302;4.634;2023-03-03T09:35:32;4.10;;;3.40;;
56653;SDS011;45096;52.302;4.634;2023-03-03T09:37:59;4.07;;;2.93;;
56653;SDS011;45096;52.302;4.634;2023-03-03T09:40:36;3.73;;;3.43;;
56653;SDS011;45096;52.302;4.634;2023-03-03T09:43:11;3.67;;;3.27;;
56653;SDS011;45096;52.302;4.634;2023-03-03T09:45:39;5.20;;;3.83;;
56653;SDS011;45096;52.302;4.634;2023-03-03T09:48:18;3.57;;;3.27;;
56653;SDS011;45096;52.302;4.634;2023-03-03T09:51:07;3.07;;;2.77;;
56653;SDS011;45096;52.302;4.634;2023-03-03T09:53:41;5.07;;;3.13;;
56653;SDS011;45096;52.302;4.634;2023-03-03T09:56:14;3.10;;;2.90;;
56653;SDS011;45096;52.302;4.634;2023-03-03T09:58:45;3.60;;;3.13;;
56653;SDS011;45096;52.302;4.634;2023-03-03T10:01:26;3.30;;;3.00;;
56653;SDS011;45096;52.302;4.634;2023-03-03T10:04:06;3.70;;;2.80;;
56653;SDS011;45096;52.302;4.634;2023-03-03T10:06:39;5.00;;;2.50;;
56653;SDS011;45096;52.302;4.634;2023-03-03T10:09:12;2.63;;;2.30;;
56653;SDS011;45096;52.302;4.634;2023-03-03T10:11:53;4.27;;;2.90;;
56653;SDS011;45096;52.302;4.634;2023-03-03T10:17:24;2.30;;;2.20;;
56653;SDS011;45096;52.302;4.634;2023-03-03T10:19:57;6.50;;;2.97;;
56653;SDS011;45096;52.302;4.634;2023-03-03T10:22:40;2.73;;;2.53;;
56653;SDS011;45096;52.302;4.634;2023-03-03T10:25:13;2.53;;;2.40;;
56653;SDS011;45096;52.302;4.634;2023-03-03T10:27:50;2.37;;;2.10;;
56653;SDS011;45096;52.302;4.634;2023-03-03T10:30:25;6.37;;;2.10;;
56653;SDS011;45096;52.302;4.634;2023-03-03T10:32:55;2.00;;;1.90;;
56653;SDS011;45096;52.302;4.634;2023-03-03T10:35:34;4.10;;;2.17;;
56653;SDS011;45096;52.302;4.634;2023-03-03T10:38:14;3.70;;;1.80;;
56653;SDS011;45096;52.302;4.634;2023-03-03T10:40:49;2.27;;;2.00;;
56653;SDS011;45096;52.302;4.634;2023-03-03T10:43:27;2.90;;;1.80;;
56653;SDS011;45096;52.302;4.634;2023-03-03T10:46:08;2.17;;;1.90;;
56653;SDS011;45096;52.302;4.634;2023-03-03T10:48:49;1.70;;;1.60;;
56653;SDS011;45096;52.302;4.634;2023-03-03T10:51:36;1.95;;;1.60;;
56653;SDS011;45096;52.302;4.634;2023-03-03T10:54:16;3.65;;;1.92;;
56653;SDS011;45096;52.302;4.634;2023-03-03T10:56:51;2.50;;;1.50;;
56653;SDS011;45096;52.302;4.634;2023-03-03T10:59:27;1.85;;;1.67;;
56653;SDS011;45096;52.302;4.634;2023-03-03T11:02:00;1.60;;;1.50;;
56653;SDS011;45096;52.302;4.634;2023-03-03T11:07:20;1.33;;;1.33;;
56653;SDS011;45096;52.302;4.634;2023-03-03T11:09:51;1.77;;;1.67;;
56653;SDS011;45096;52.302;4.634;2023-03-03T11:12:27;1.70;;;1.60;;
56653;SDS011;45096;52.302;4.634;2023-03-03T11:15:02;2.85;;;1.55;;
56653;SDS011;45096;52.302;4.634;2023-03-03T11:17:41;1.73;;;1.60;;
56653;SDS011;45096;52.302;4.634;2023-03-03T11:20:20;1.70;;;1.60;;
56653;SDS011;45096;52.302;4.634;2023-03-03T11:22:53;1.53;;;1.43;;
56653;SDS011;45096;52.302;4.634;2023-03-03T11:25:25;1.40;;;1.17;;
56653;SDS011;45096;52.302;4.634;2023-03-03T11:28:07;1.65;;;1.38;;
56653;SDS011;45096;52.302;4.634;2023-03-03T11:30:42;1.48;;;1.38;;
56653;SDS011;45096;52.302;4.634;2023-03-03T11:33:14;2.90;;;1.52;;
56653;SDS011;45096;52.302;4.634;2023-03-03T11:35:44;2.35;;;1.20;;
56653;SDS011;45096;52.302;4.634;2023-03-03T11:38:23;2.70;;;1.52;;
56653;SDS011;45096;52.302;4.634;2023-03-03T11:40:56;1.50;;;1.40;;
56653;SDS011;45096;52.302;4.634;2023-03-03T11:43:26;1.73;;;1.35;;
56653;SDS011;45096;52.302;4.634;2023-03-03T11:45:54;2.63;;;1.40;;
56653;SDS011;45096;52.302;4.634;2023-03-03T11:48:24;5.35;;;1.33;;
56653;SDS011;45096;52.302;4.634;2023-03-03T11:50:56;3.65;;;1.83;;
56653;SDS011;45096;52.302;4.634;2023-03-03T11:53:31;4.88;;;1.20;;
56653;SDS011;45096;52.302;4.634;2023-03-03T11:56:07;1.30;;;1.30;;
56653;SDS011;45096;52.302;4.634;2023-03-03T11:58:39;1.80;;;1.45;;
56653;SDS011;45096;52.302;4.634;2023-03-03T12:01:11;2.22;;;1.23;;
56653;SDS011;45096;52.302;4.634;2023-03-03T12:03:42;1.38;;;1.27;;
56653;SDS011;45096;52.302;4.634;2023-03-03T12:06:15;4.40;;;1.50;;
56653;SDS011;45096;52.302;4.634;2023-03-03T12:08:55;1.75;;;1.65;;
56653;SDS011;45096;52.302;4.634;2023-03-03T12:11:31;2.58;;;1.40;;
56653;SDS011;45096;52.302;4.634;2023-03-03T12:13:59;2.70;;;1.55;;
56653;SDS011;45096;52.302;4.634;2023-03-03T12:16:35;1.20;;;1.20;;
56653;SDS011;45096;52.302;4.634;2023-03-03T12:21:53;1.27;;;1.20;;
56653;SDS011;45096;52.302;4.634;2023-03-03T12:24:30;1.92;;;1.83;;
56653;SDS011;45096;52.302;4.634;2023-03-03T12:27:01;2.20;;;1.42;;
56653;SDS011;45096;52.302;4.634;2023-03-03T12:29:35;1.55;;;1.48;;
56653;SDS011;45096;52.302;4.634;2023-03-03T12:32:09;1.50;;;1.48;;
56653;SDS011;45096;52.302;4.634;2023-03-03T12:34:43;3.60;;;1.60;;
56653;SDS011;45096;52.302;4.634;2023-03-03T12:37:17;1.60;;;1.50;;
56653;SDS011;45096;52.302;4.634;2023-03-03T12:39:51;1.60;;;1.48;;
56653;SDS011;45096;52.302;4.634;2023-03-03T12:42:24;1.45;;;1.30;;
56653;SDS011;45096;52.302;4.634;2023-03-03T12:45:00;1.60;;;1.60;;
56653;SDS011;45096;52.302;4.634;2023-03-03T12:47:35;1.17;;;1.17;;
56653;SDS011;45096;52.302;4.634;2023-03-03T12:50:13;1.85;;;1.20;;
56653;SDS011;45096;52.302;4.634;2023-03-03T12:52:49;2.30;;;1.52;;
56653;SDS011;45096;52.302;4.634;2023-03-03T12:55:20;2.95;;;1.45;;
56653;SDS011;45096;52.302;4.634;2023-03-03T12:57:50;1.58;;;1.48;;
56653;SDS011;45096;52.302;4.634;2023-03-03T13:00:22;1.67;;;0.95;;
56653;SDS011;45096;52.302;4.634;2023-03-03T13:02:56;1.17;;;1.13;;
56653;SDS011;45096;52.302;4.634;2023-03-03T13:05:26;4.88;;;1.50;;
56653;SDS011;45096;52.302;4.634;2023-03-03T13:07:56;2.25;;;1.30;;
56653;SDS011;45096;52.302;4.634;2023-03-03T13:10:29;2.53;;;1.50;;
56653;SDS011;45096;52.302;4.634;2023-03-03T13:13:00;1.50;;;1.40;;
56653;SDS011;45096;52.302;4.634;2023-03-03T13:15:29;1.10;;;1.10;;
56653;SDS011;45096;52.302;4.634;2023-03-03T13:17:59;1.15;;;1.15;;
56653;SDS011;45096;52.302;4.634;2023-03-03T13:20:40;1.23;;;1.13;;
56653;SDS011;45096;52.302;4.634;2023-03-03T13:23:11;1.83;;;1.50;;
56653;SDS011;45096;52.302;4.634;2023-03-03T13:25:43;4.57;;;1.40;;
56653;SDS011;45096;52.302;4.634;2023-03-03T13:28:15;2.70;;;1.40;;
56653;SDS011;45096;52.302;4.634;2023-03-03T13:30:46;1.45;;;1.08;;
56653;SDS011;45096;52.302;4.634;2023-03-03T13:33:15;1.70;;;1.60;;
56653;SDS011;45096;52.302;4.634;2023-03-03T13:35:43;3.20;;;1.15;;
56653;SDS011;45096;52.302;4.634;2023-03-03T13:38:11;2.22;;;1.33;;
56653;SDS011;45096;52.302;4.634;2023-03-03T13:40:39;1.35;;;1.23;;
56653;SDS011;45096;52.302;4.634;2023-03-03T13:43:08;1.25;;;1.17;;
56653;SDS011;45096;52.302;4.634;2023-03-03T13:45:40;0.93;;;0.90;;
56653;SDS011;45096;52.302;4.634;2023-03-03T13:48:19;0.90;;;0.90;;
56653;SDS011;45096;52.302;4.634;2023-03-03T13:50:52;1.05;;;0.90;;
56653;SDS011;45096;52.302;4.634;2023-03-03T13:53:28;1.48;;;1.38;;
56653;SDS011;45096;52.302;4.634;2023-03-03T13:56:01;1.90;;;1.00;;
56653;SDS011;45096;52.302;4.634;2023-03-03T13:58:35;2.78;;;1.13;;
56653;SDS011;45096;52.302;4.634;2023-03-03T14:01:05;2.75;;;1.27;;
56653;SDS011;45096;52.302;4.634;2023-03-03T14:06:20;1.23;;;1.05;;
56653;SDS011;45096;52.302;4.634;2023-03-03T14:11:36;1.85;;;1.40;;
56653;SDS011;45096;52.302;4.634;2023-03-03T14:14:09;3.17;;;1.30;;
56653;SDS011;45096;52.302;4.634;2023-03-03T14:16:42;2.53;;;1.30;;
56653;SDS011;45096;52.302;4.634;2023-03-03T14:19:16;1.65;;;1.15;;
56653;SDS011;45096;52.302;4.634;2023-03-03T14:21:44;2.47;;;1.20;;
56653;SDS011;45096;52.302;4.634;2023-03-03T14:24:15;1.10;;;1.10;;
56653;SDS011;45096;52.302;4.634;2023-03-03T14:26:45;1.15;;;1.15;;
56653;SDS011;45096;52.302;4.634;2023-03-03T14:29:15;1.60;;;1.20;;
56653;SDS011;45096;52.302;4.634;2023-03-03T14:31:45;1.83;;;1.23;;
56653;SDS011;45096;52.302;4.634;2023-03-03T14:34:24;1.00;;;1.00;;
56653;SDS011;45096;52.302;4.634;2023-03-03T14:36:56;1.65;;;1.35;;
56653;SDS011;45096;52.302;4.634;2023-03-03T14:39:29;1.17;;;1.17;;
56653;SDS011;45096;52.302;4.634;2023-03-03T14:41:57;1.10;;;1.05;;
56653;SDS011;45096;52.302;4.634;2023-03-03T14:44:26;1.15;;;1.13;;
56653;SDS011;45096;52.302;4.634;2023-03-03T14:47:04;1.17;;;1.17;;
56653;SDS011;45096;52.302;4.634;2023-03-03T14:49:38;1.20;;;1.10;;
56653;SDS011;45096;52.302;4.634;2023-03-03T14:52:09;1.17;;;1.10;;
56653;SDS011;45096;52.302;4.634;2023-03-03T14:54:43;1.38;;;1.20;;
56653;SDS011;45096;52.302;4.634;2023-03-03T14:57:11;1.08;;;0.90;;
56653;SDS011;45096;52.302;4.634;2023-03-03T14:59:39;2.28;;;0.90;;
56653;SDS011;45096;52.302;4.634;2023-03-03T15:02:19;1.60;;;1.10;;
56653;SDS011;45096;52.302;4.634;2023-03-03T15:05:20;1.20;;;1.15;;
56653;SDS011;45096;52.302;4.634;2023-03-03T15:07:48;1.92;;;1.05;;
56653;SDS011;45096;52.302;4.634;2023-03-03T15:10:25;2.35;;;1.02;;
56653;SDS011;45096;52.302;4.634;2023-03-03T15:12:52;1.02;;;1.02;;
56653;SDS011;45096;52.302;4.634;2023-03-03T15:15:18;1.42;;;1.05;;
56653;SDS011;45096;52.302;4.634;2023-03-03T15:17:52;1.33;;;1.10;;
56653;SDS011;45096;52.302;4.634;2023-03-03T15:20:25;2.85;;;1.30;;
56653;SDS011;45096;52.302;4.634;2023-03-03T15:22:57;1.17;;;1.08;;